createdAt,value
2022-11-01T00:01:38.060Z,37.33
2022-11-01T00:04:05.819Z,38.27
2022-11-01T00:06:33.209Z,39.17
2022-11-01T00:09:00.762Z,40.30
2022-11-01T00:11:28.326Z,39.23
2022-11-01T00:13:55.786Z,38.07
2022-11-01T00:16:23.357Z,43.70
2022-11-01T00:18:50.692Z,38.63
2022-11-01T00:21:19.426Z,42.13
2022-11-01T00:23:47.725Z,39.43
2022-11-01T00:26:17.914Z,40.33
2022-11-01T00:28:46.491Z,41.03
2022-11-01T00:31:15.221Z,40.83
2022-11-01T00:33:42.614Z,38.40
2022-11-01T00:36:10.572Z,43.03
2022-11-01T00:38:38.234Z,37.57
2022-11-01T00:41:06.395Z,43.83
2022-11-01T00:43:35.441Z,34.87
2022-11-01T00:46:03.380Z,40.50
2022-11-01T00:48:31.127Z,41.97
2022-11-01T00:50:58.649Z,37.97
2022-11-01T00:53:26.068Z,40.90
2022-11-01T00:55:53.586Z,38.57
2022-11-01T00:58:21.085Z,38.43
2022-11-01T01:00:48.894Z,36.93
2022-11-01T01:03:16.315Z,39.77
2022-11-01T01:05:43.926Z,40.50
2022-11-01T01:08:11.301Z,38.83
2022-11-01T01:10:38.603Z,37.37
2022-11-01T01:13:06.037Z,38.70
2022-11-01T01:15:33.664Z,38.80
2022-11-01T01:18:01.232Z,37.47
2022-11-01T01:20:28.813Z,31.57
2022-11-01T01:22:56.869Z,37.10
2022-11-01T01:25:24.628Z,38.23
2022-11-01T01:27:52.064Z,37.47
2022-11-01T01:30:19.429Z,34.83
2022-11-01T01:32:46.894Z,33.57
2022-11-01T01:35:14.300Z,32.07
2022-11-01T01:37:41.915Z,31.03
2022-11-01T01:40:10.036Z,30.07
2022-11-01T01:42:39.713Z,28.70
2022-11-01T01:45:29.428Z,28.80
2022-11-01T01:48:09.675Z,28.00
2022-11-01T01:50:47.080Z,30.63
2022-11-01T01:53:28.492Z,30.63
2022-11-01T01:56:05.309Z,28.13
2022-11-01T01:58:45.063Z,27.83
2022-11-01T02:01:12.864Z,29.07
2022-11-01T02:03:41.961Z,28.40
2022-11-01T02:06:15.896Z,27.30
2022-11-01T02:08:49.641Z,29.60
2022-11-01T02:11:18.807Z,27.03
2022-11-01T02:13:46.691Z,31.53
2022-11-01T02:16:17.041Z,29.87
2022-11-01T02:19:22.276Z,28.40
2022-11-01T02:22:00.821Z,29.73
2022-11-01T02:24:28.079Z,27.80
2022-11-01T02:27:01.427Z,30.17
2022-11-01T02:29:53.766Z,28.03
2022-11-01T02:32:26.868Z,26.17
2022-11-01T02:35:05.884Z,24.83
2022-11-01T02:38:00.230Z,26.43
2022-11-01T02:40:42.555Z,26.77
2022-11-01T02:43:17.292Z,28.47
2022-11-01T02:45:49.504Z,25.57
2022-11-01T02:48:21.827Z,25.70
2022-11-01T02:50:56.532Z,23.93
2022-11-01T02:53:24.453Z,22.57
2022-11-01T02:55:53.301Z,23.47
2022-11-01T02:58:24.641Z,23.40
2022-11-01T03:00:52.292Z,21.47
2022-11-01T03:03:22.181Z,22.50
2022-11-01T03:05:55.218Z,21.33
2022-11-01T03:08:38.580Z,20.40
2022-11-01T03:11:19.366Z,18.83
2022-11-01T03:14:01.588Z,22.47
2022-11-01T03:16:37.230Z,20.60
2022-11-01T03:19:19.940Z,20.40
2022-11-01T03:21:59.328Z,23.27
2022-11-01T03:25:30.735Z,22.47
2022-11-01T03:28:06.338Z,19.03
2022-11-01T03:30:35.429Z,16.70
2022-11-01T03:33:05.797Z,18.40
2022-11-01T03:35:39.334Z,17.60
2022-11-01T03:38:12.895Z,18.33
2022-11-01T03:40:45.485Z,15.73
2022-11-01T03:43:16.017Z,16.50
2022-11-01T03:45:43.926Z,16.37
2022-11-01T03:48:11.257Z,15.83
2022-11-01T03:50:40.267Z,16.97
2022-11-01T03:53:07.707Z,17.67
2022-11-01T03:55:35.090Z,19.43
2022-11-01T03:58:02.855Z,17.67
2022-11-01T04:00:45.173Z,18.80
2022-11-01T04:03:13.415Z,18.10
2022-11-01T04:05:42.167Z,16.53
2022-11-01T04:08:11.032Z,17.37
2022-11-01T04:10:38.704Z,17.73
2022-11-01T04:13:06.397Z,16.47
2022-11-01T04:15:52.205Z,14.87
2022-11-01T04:18:43.055Z,18.10
2022-11-01T04:21:17.913Z,17.07
2022-11-01T04:23:46.375Z,15.63
2022-11-01T04:26:16.870Z,17.83
2022-11-01T04:28:59.808Z,14.83
2022-11-01T04:31:28.634Z,15.03
2022-11-01T04:33:57.486Z,14.73
2022-11-01T04:36:25.396Z,16.53
2022-11-01T04:38:58.007Z,16.20
2022-11-01T04:41:27.621Z,15.53
2022-11-01T04:43:57.404Z,16.47
2022-11-01T04:46:25.240Z,15.60
2022-11-01T04:48:52.575Z,16.43
2022-11-01T04:51:19.984Z,16.40
2022-11-01T04:53:47.325Z,15.13
2022-11-01T04:56:14.767Z,15.60
2022-11-01T04:58:46.141Z,16.33
2022-11-01T05:01:15.059Z,14.57
2022-11-01T05:03:43.232Z,16.90
2022-11-01T05:06:10.634Z,17.93
2022-11-01T05:08:38.012Z,17.90
2022-11-01T05:11:05.532Z,14.73
2022-11-01T05:13:33.215Z,17.00
2022-11-01T05:16:18.794Z,15.77
2022-11-01T05:18:46.729Z,15.27
2022-11-01T05:21:14.147Z,16.10
2022-11-01T05:23:41.574Z,14.80
2022-11-01T05:26:08.968Z,15.97
2022-11-01T05:28:36.418Z,16.17
2022-11-01T05:31:03.859Z,16.07
2022-11-01T05:33:31.270Z,15.93
2022-11-01T05:36:02.100Z,14.27
2022-11-01T05:38:29.542Z,15.20
2022-11-01T05:40:57.057Z,16.63
2022-11-01T05:43:24.478Z,15.37
2022-11-01T05:45:51.817Z,16.90
2022-11-01T05:48:19.302Z,16.03
2022-11-01T05:50:47.095Z,17.17
2022-11-01T05:53:14.959Z,14.57
2022-11-01T05:55:42.395Z,15.57
2022-11-01T05:58:09.894Z,16.50
2022-11-01T06:00:37.311Z,16.30
2022-11-01T06:03:05.786Z,18.30
2022-11-01T06:05:33.995Z,17.70
2022-11-01T06:08:02.677Z,16.40
2022-11-01T06:10:30.995Z,16.10
2022-11-01T06:12:59.058Z,17.83
2022-11-01T06:15:26.539Z,16.57
2022-11-01T06:17:58.539Z,16.43
2022-11-01T06:20:27.540Z,17.70
2022-11-01T06:22:55.237Z,19.20
2022-11-01T06:25:23.602Z,17.30
2022-11-01T06:27:50.995Z,17.27
2022-11-01T06:30:18.390Z,16.43
2022-11-01T06:32:45.934Z,16.67
2022-11-01T06:35:15.101Z,18.07
2022-11-01T06:37:43.048Z,16.47
2022-11-01T06:40:13.008Z,15.77
2022-11-01T06:42:46.238Z,17.30
2022-11-01T06:45:14.675Z,17.30
2022-11-01T06:47:46.997Z,15.93
2022-11-01T06:50:14.478Z,16.57
2022-11-01T06:52:41.794Z,16.53
2022-11-01T06:55:09.443Z,14.50
2022-11-01T06:57:36.855Z,15.63
2022-11-01T07:00:05.250Z,15.93
2022-11-01T07:02:32.683Z,15.93
2022-11-01T07:05:00.210Z,17.00
2022-11-01T07:07:27.843Z,16.40
2022-11-01T07:09:55.291Z,14.50
2022-11-01T07:12:22.619Z,15.63
2022-11-01T07:14:49.947Z,13.83
2022-11-01T07:17:17.297Z,14.33
2022-11-01T07:19:44.608Z,15.77
2022-11-01T07:22:11.978Z,16.13
2022-11-01T07:24:39.541Z,14.63
2022-11-01T07:27:06.862Z,14.57
2022-11-01T07:29:34.277Z,14.33
2022-11-01T07:32:01.865Z,13.67
2022-11-01T07:34:31.303Z,14.67
2022-11-01T07:36:58.751Z,16.30
2022-11-01T07:39:26.253Z,13.83
2022-11-01T07:41:54.449Z,12.57
2022-11-01T07:44:21.984Z,13.33
2022-11-01T07:46:49.379Z,11.50
2022-11-01T07:49:16.757Z,13.83
2022-11-01T07:51:44.043Z,13.00
2022-11-01T07:54:11.986Z,11.70
2022-11-01T07:56:39.994Z,13.50
2022-11-01T07:59:09.396Z,12.83
2022-11-01T08:01:37.070Z,11.97
2022-11-01T08:04:04.744Z,12.73
2022-11-01T08:06:32.316Z,10.77
2022-11-01T08:08:59.807Z,12.53
2022-11-01T08:11:27.961Z,11.87
2022-11-01T08:13:59.266Z,12.07
2022-11-01T08:16:31.677Z,12.33
2022-11-01T08:18:59.054Z,11.93
2022-11-01T08:21:26.399Z,11.30
2022-11-01T08:23:54.009Z,13.67
2022-11-01T08:26:21.432Z,11.57
2022-11-01T08:28:48.861Z,13.53
2022-11-01T08:31:16.683Z,12.23
2022-11-01T08:33:44.038Z,12.70
2022-11-01T08:36:11.432Z,13.50
2022-11-01T08:38:38.824Z,11.70
2022-11-01T08:41:06.332Z,12.90
2022-11-01T08:43:38.017Z,12.13
2022-11-01T08:46:10.653Z,14.77
2022-11-01T08:48:38.315Z,11.40
2022-11-01T08:51:07.141Z,15.30
2022-11-01T08:53:34.572Z,12.57
2022-11-01T08:56:02.011Z,13.20
2022-11-01T08:58:29.366Z,12.47
2022-11-01T09:00:56.792Z,12.73
2022-11-01T09:03:24.309Z,16.37
2022-11-01T09:05:51.580Z,11.70
2022-11-01T09:08:19.182Z,12.80
2022-11-01T09:10:46.561Z,12.73
2022-11-01T09:13:13.891Z,11.90
2022-11-01T09:15:41.455Z,12.17
2022-11-01T09:18:09.253Z,15.90
2022-11-01T09:20:36.716Z,12.33
2022-11-01T09:23:04.590Z,12.33
2022-11-01T09:25:32.339Z,15.73
2022-11-01T09:27:59.770Z,10.73
2022-11-01T09:30:27.456Z,12.10
2022-11-01T09:32:54.769Z,14.77
2022-11-01T09:35:22.174Z,10.90
2022-11-01T09:37:49.488Z,11.97
2022-11-01T09:40:17.334Z,12.67
2022-11-01T09:42:46.475Z,10.50
2022-11-01T09:45:26.566Z,10.80
2022-11-01T09:47:56.091Z,11.63
2022-11-01T09:50:29.448Z,13.50
2022-11-01T09:52:57.531Z,10.33
2022-11-01T09:55:42.975Z,13.90
2022-11-01T09:58:38.911Z,11.20
2022-11-01T10:01:12.290Z,10.53
2022-11-01T10:03:48.651Z,12.33
2022-11-01T10:06:24.061Z,13.87
2022-11-01T10:09:01.422Z,12.27
2022-11-01T10:12:25.628Z,12.93
2022-11-01T10:15:14.328Z,12.77
2022-11-01T10:17:53.250Z,10.77
2022-11-01T10:20:33.656Z,13.87
2022-11-01T10:23:03.909Z,11.13
2022-11-01T10:25:36.029Z,12.93
2022-11-01T10:28:25.413Z,14.53
2022-11-01T10:31:02.223Z,12.37
2022-11-01T10:33:43.806Z,11.10
2022-11-01T10:36:17.927Z,12.50
2022-11-01T10:39:48.715Z,12.17
2022-11-01T10:41:53.172Z,13.13
2022-11-01T10:44:32.514Z,11.40
2022-11-01T10:47:04.823Z,11.27
2022-11-01T10:52:56.501Z,12.30
2022-11-01T10:55:30.035Z,11.47
2022-11-01T10:58:03.806Z,12.47
2022-11-01T11:00:34.992Z,11.53
2022-11-01T11:03:17.041Z,11.73
2022-11-01T11:05:45.395Z,10.37
2022-11-01T11:08:18.172Z,12.60
2022-11-01T11:10:46.165Z,12.33
2022-11-01T11:13:26.117Z,12.50
2022-11-01T11:15:57.204Z,13.33
2022-11-01T11:18:32.013Z,11.70
2022-11-01T11:21:18.890Z,11.27
2022-11-01T11:23:47.342Z,12.87
2022-11-01T11:26:18.676Z,12.90
2022-11-01T11:28:56.778Z,11.80
2022-11-01T11:31:25.903Z,12.10
2022-11-01T11:34:23.730Z,12.20
2022-11-01T11:36:54.923Z,11.40
2022-11-01T11:39:37.044Z,12.27
2022-11-01T11:42:17.235Z,12.17
2022-11-01T11:44:50.608Z,11.37
2022-11-01T11:47:29.062Z,12.17
2022-11-01T11:49:59.718Z,11.27
2022-11-01T11:52:39.709Z,11.40
2022-11-01T11:55:26.072Z,12.83
2022-11-01T11:57:56.038Z,12.33
2022-11-01T12:00:27.042Z,13.10
2022-11-01T12:02:54.519Z,13.67
2022-11-01T12:05:23.784Z,12.73
2022-11-01T12:07:54.282Z,11.83
2022-11-01T12:10:45.450Z,12.93
2022-11-01T12:13:37.758Z,12.97
2022-11-01T12:16:20.143Z,11.90
2022-11-01T12:18:55.301Z,14.00
2022-11-01T12:21:36.870Z,12.73
2022-11-01T12:24:48.496Z,14.37
2022-11-01T12:27:23.315Z,13.77
2022-11-01T12:30:02.716Z,13.17
2022-11-01T12:32:37.805Z,12.17
2022-11-01T12:35:16.644Z,12.53
2022-11-01T12:38:08.469Z,16.53
2022-11-01T12:40:42.304Z,14.27
2022-11-01T12:43:34.353Z,14.33
2022-11-01T12:46:28.667Z,13.33
2022-11-01T12:49:35.517Z,14.10
2022-11-01T12:52:12.457Z,11.33
2022-11-01T12:54:51.693Z,13.60
2022-11-01T12:57:20.802Z,12.97
2022-11-01T12:59:48.651Z,14.40
2022-11-01T13:02:23.481Z,13.50
2022-11-01T13:05:12.916Z,13.40
2022-11-01T13:07:47.118Z,15.37
2022-11-01T13:10:31.786Z,13.30
2022-11-01T13:13:05.748Z,15.87
2022-11-01T13:15:54.391Z,15.33
2022-11-01T13:18:49.783Z,16.37
2022-11-01T13:21:23.515Z,14.50
2022-11-01T13:24:16.849Z,14.90
2022-11-01T13:26:53.105Z,14.37
2022-11-01T13:29:44.639Z,14.43
2022-11-01T13:32:30.998Z,14.43
2022-11-01T13:35:18.492Z,15.07
2022-11-01T13:37:57.317Z,16.70
2022-11-01T13:40:43.166Z,16.43
2022-11-01T13:43:19.752Z,13.57
2022-11-01T13:46:12.030Z,16.17
2022-11-01T13:49:10.063Z,15.27
2022-11-01T13:51:58.129Z,15.13
2022-11-01T13:54:46.812Z,18.70
2022-11-01T13:57:17.177Z,16.37
2022-11-01T13:59:57.950Z,15.30
2022-11-01T14:02:28.321Z,17.37
2022-11-01T14:05:04.204Z,15.37
2022-11-01T14:07:59.091Z,14.73
2022-11-01T14:10:30.453Z,16.67
2022-11-01T14:13:10.838Z,17.00
2022-11-01T14:15:59.451Z,16.70
2022-11-01T14:18:28.085Z,19.00
2022-11-01T14:20:57.041Z,18.60
2022-11-01T14:23:31.474Z,16.30
2022-11-01T14:26:21.161Z,16.93
2022-11-01T14:28:50.900Z,16.77
2022-11-01T14:31:22.213Z,18.03
2022-11-01T14:33:50.210Z,16.00
2022-11-01T14:36:21.661Z,16.93
2022-11-01T14:38:56.240Z,15.67
2022-11-01T14:41:27.321Z,17.93
2022-11-01T14:44:03.063Z,16.53
2022-11-01T14:46:34.922Z,18.10
2022-11-01T14:49:33.321Z,16.97
2022-11-01T14:52:26.379Z,17.33
2022-11-01T14:55:03.914Z,18.60
2022-11-01T14:57:33.902Z,20.03
2022-11-01T15:00:38.486Z,19.30
2022-11-01T15:03:08.433Z,19.67
2022-11-01T15:05:50.788Z,19.70
2022-11-01T15:08:23.446Z,20.23
2022-11-01T15:10:53.243Z,21.00
2022-11-01T15:13:22.834Z,19.20
2022-11-01T15:16:03.788Z,22.43
2022-11-01T15:18:31.901Z,19.20
2022-11-01T15:21:01.223Z,19.50
2022-11-01T15:23:33.253Z,18.13
2022-11-01T15:26:13.059Z,19.73
2022-11-01T15:28:45.532Z,18.13
2022-11-01T15:31:13.133Z,19.83
2022-11-01T15:33:51.003Z,19.90
2022-11-01T15:36:27.450Z,23.87
2022-11-01T15:38:57.533Z,21.83
2022-11-01T15:41:31.379Z,21.87
2022-11-01T15:44:08.041Z,20.13
2022-11-01T15:46:41.836Z,22.30
2022-11-01T15:49:13.728Z,27.00
2022-11-01T15:51:47.135Z,22.77
2022-11-01T15:54:36.484Z,21.47
2022-11-01T15:57:37.282Z,23.80
2022-11-01T16:00:17.573Z,20.97
2022-11-01T16:02:58.874Z,25.57
2022-11-01T16:05:31.987Z,24.10
2022-11-01T16:07:59.765Z,23.50
2022-11-01T16:10:29.879Z,23.40
2022-11-01T16:12:59.396Z,22.20
2022-11-01T16:15:33.207Z,25.33
2022-11-01T16:18:04.584Z,25.07
2022-11-01T16:20:38.746Z,26.73
2022-11-01T16:23:08.217Z,26.20
2022-11-01T16:25:37.992Z,27.17
2022-11-01T16:28:10.391Z,27.70
2022-11-01T16:30:49.636Z,27.37
2022-11-01T16:33:19.939Z,26.23
2022-11-01T16:35:58.981Z,27.13
2022-11-01T16:38:35.901Z,27.77
2022-11-01T16:41:05.032Z,28.07
2022-11-01T16:43:34.925Z,31.13
2022-11-01T16:46:04.828Z,29.60
2022-11-01T16:48:35.920Z,29.30
2022-11-01T16:51:04.474Z,27.47
2022-11-01T16:53:31.929Z,29.67
2022-11-01T16:56:35.666Z,31.23
2022-11-01T16:59:14.663Z,31.90
2022-11-01T17:01:45.241Z,32.67
2022-11-01T17:04:13.503Z,32.27
2022-11-01T17:06:40.833Z,33.30
2022-11-01T17:09:17.363Z,30.90
2022-11-01T17:11:50.896Z,33.83
2022-11-01T17:14:19.813Z,32.67
2022-11-01T17:16:49.396Z,32.90
2022-11-01T17:19:48.370Z,35.43
2022-11-01T17:22:24.318Z,35.33
2022-11-01T17:24:51.711Z,35.37
2022-11-01T17:27:19.258Z,31.87
2022-11-01T17:29:46.819Z,34.87
2022-11-01T17:32:14.367Z,35.93
2022-11-01T17:34:41.852Z,41.10
2022-11-01T17:37:14.570Z,36.57
2022-11-01T17:39:42.004Z,38.37
2022-11-01T17:42:10.271Z,39.83
2022-11-01T17:44:37.772Z,38.40
2022-11-01T17:47:05.176Z,33.00
2022-11-01T17:49:32.686Z,39.80
2022-11-01T17:52:01.071Z,39.67
2022-11-01T17:54:28.450Z,41.33
2022-11-01T17:56:55.936Z,38.37
2022-11-01T17:59:23.275Z,39.37
2022-11-01T18:01:51.081Z,40.53
2022-11-01T18:04:18.721Z,39.57
2022-11-01T18:06:46.145Z,38.00
2022-11-01T18:09:24.771Z,38.87
2022-11-01T18:12:08.642Z,38.33
2022-11-01T18:14:56.723Z,38.43
2022-11-01T18:17:39.325Z,37.80
2022-11-01T18:20:15.715Z,35.97
2022-11-01T18:23:03.445Z,39.47
2022-11-01T18:25:39.502Z,39.80
2022-11-01T18:28:25.191Z,39.97
2022-11-01T18:31:12.348Z,39.90
2022-11-01T18:34:10.557Z,33.50
2022-11-01T18:36:53.593Z,40.23
2022-11-01T18:39:45.140Z,39.20
2022-11-01T18:42:13.465Z,35.93
2022-11-01T18:44:40.832Z,41.27
2022-11-01T18:47:43.147Z,38.93
2022-11-01T18:50:26.105Z,39.10
2022-11-01T18:53:08.303Z,36.80
2022-11-01T18:55:35.719Z,38.70
2022-11-01T18:58:17.718Z,38.50
2022-11-01T19:00:45.367Z,40.90
2022-11-01T19:03:14.933Z,35.20
2022-11-01T19:05:43.119Z,39.17
2022-11-01T19:08:26.744Z,36.87
2022-11-01T19:10:54.897Z,40.83
2022-11-01T19:13:34.027Z,38.43
2022-11-01T19:16:01.991Z,37.43
2022-11-01T19:18:29.965Z,36.63
2022-11-01T19:20:58.951Z,36.60
2022-11-01T19:23:41.304Z,36.20
2022-11-01T19:26:33.770Z,34.83
2022-11-01T19:29:05.911Z,35.63
2022-11-01T19:31:37.206Z,36.07
2022-11-01T19:34:11.989Z,36.97
2022-11-01T19:36:42.174Z,41.70
2022-11-01T19:39:21.075Z,37.57
2022-11-01T19:41:48.742Z,34.80
2022-11-01T19:44:21.501Z,33.60
2022-11-01T19:46:52.183Z,39.00
2022-11-01T19:49:29.838Z,38.30
2022-11-01T19:52:15.190Z,33.90
2022-11-01T19:54:47.401Z,35.10
2022-11-01T19:57:34.118Z,37.77
2022-11-01T20:00:20.881Z,35.50
2022-11-01T20:02:51.776Z,39.67
2022-11-01T20:05:29.058Z,35.10
2022-11-01T20:08:06.237Z,38.70
2022-11-01T20:10:33.666Z,35.03
2022-11-01T20:13:01.577Z,37.30
2022-11-01T20:15:29.839Z,33.20
2022-11-01T20:17:57.163Z,35.20
2022-11-01T20:20:25.100Z,37.20
2022-11-01T20:23:06.174Z,36.93
2022-11-01T20:25:40.326Z,38.70
2022-11-01T20:28:08.833Z,41.13
2022-11-01T20:30:36.236Z,40.77
2022-11-01T20:33:03.800Z,36.23
2022-11-01T20:35:31.315Z,38.60
2022-11-01T20:37:58.799Z,40.30
2022-11-01T20:40:26.664Z,36.77
2022-11-01T20:42:54.713Z,39.57
2022-11-01T20:45:22.105Z,41.00
2022-11-01T20:47:51.144Z,37.73
2022-11-01T20:50:19.049Z,34.90
2022-11-01T20:52:46.497Z,37.80
2022-11-01T20:55:14.141Z,42.63
2022-11-01T20:57:42.317Z,36.90
2022-11-01T21:00:13.076Z,37.83
2022-11-01T21:02:40.977Z,39.97
2022-11-01T21:05:28.536Z,36.43
2022-11-01T21:08:07.975Z,39.57
2022-11-01T21:10:37.552Z,36.33
2022-11-01T21:13:22.515Z,38.57
2022-11-01T21:15:51.034Z,37.20
2022-11-01T21:18:18.320Z,36.47
2022-11-01T21:20:48.604Z,36.27
2022-11-01T21:23:21.974Z,38.33
2022-11-01T21:25:52.092Z,33.80
2022-11-01T21:28:33.403Z,34.00
2022-11-01T21:31:15.769Z,36.73
2022-11-01T21:33:55.072Z,37.50
2022-11-01T21:36:22.506Z,37.87
2022-11-01T21:38:54.757Z,37.17
2022-11-01T21:41:22.167Z,37.07
2022-11-01T21:43:49.947Z,73.80
2022-11-01T21:46:21.436Z,42.80
2022-11-01T21:48:52.635Z,38.57
2022-11-01T21:51:20.076Z,39.53
2022-11-01T21:53:47.357Z,35.87
2022-11-01T21:56:14.731Z,37.83
2022-11-01T21:58:42.031Z,38.20
2022-11-01T22:01:09.537Z,38.00
2022-11-01T22:03:36.882Z,33.43
2022-11-01T22:06:04.419Z,40.43
2022-11-01T22:08:31.699Z,32.53
2022-11-01T22:10:59.081Z,36.43
2022-11-01T22:13:26.412Z,36.10
2022-11-01T22:15:53.751Z,37.50
2022-11-01T22:18:24.888Z,35.17
2022-11-01T22:20:53.038Z,32.10
2022-11-01T22:23:20.335Z,40.47
2022-11-01T22:25:47.694Z,34.87
2022-11-01T22:28:14.985Z,34.50
2022-11-01T22:30:42.476Z,33.10
2022-11-01T22:33:11.111Z,31.87
2022-11-01T22:35:38.497Z,30.03
2022-11-01T22:38:19.190Z,33.63
2022-11-01T22:41:01.294Z,31.23
2022-11-01T22:43:29.267Z,28.83
2022-11-01T22:45:57.320Z,30.20
2022-11-01T22:48:24.899Z,31.23
2022-11-01T22:50:52.366Z,28.57
2022-11-01T22:53:24.252Z,31.40
2022-11-01T22:55:54.735Z,29.87
2022-11-01T22:58:37.775Z,28.73
2022-11-01T23:01:25.984Z,27.57
2022-11-01T23:03:59.018Z,31.00
2022-11-01T23:06:34.571Z,29.97
2022-11-01T23:09:22.068Z,24.63
2022-11-01T23:12:13.569Z,28.87
2022-11-01T23:14:45.545Z,29.67
2022-11-01T23:17:21.206Z,28.83
2022-11-01T23:19:55.780Z,28.10
2022-11-01T23:22:26.125Z,29.27
2022-11-01T23:24:54.584Z,29.93
2022-11-01T23:27:24.627Z,32.97
2022-11-01T23:29:54.343Z,25.63
2022-11-01T23:32:21.729Z,30.37
2022-11-01T23:34:50.403Z,31.33
2022-11-01T23:37:21.051Z,30.47
2022-11-01T23:39:48.692Z,29.20
2022-11-01T23:42:22.249Z,29.23
2022-11-01T23:44:55.736Z,33.20
2022-11-01T23:47:35.299Z,30.20
2022-11-01T23:50:10.352Z,29.43
2022-11-01T23:52:47.876Z,27.23
2022-11-01T23:55:24.019Z,32.37
2022-11-01T23:57:56.438Z,28.60
